sensor_id;sensor_type;location;lat;lon;timestamp;P1;durP1;ratioP1;P2;durP2;ratioP2
29958;SDS011;16815;51.100;6.516;2022-12-07T00:01:10;17.10;;;13.40;;
29958;SDS011;16815;51.100;6.516;2022-12-07T00:03:37;16.17;;;13.10;;
29958;SDS011;16815;51.100;6.516;2022-12-07T00:06:03;17.20;;;13.37;;
29958;SDS011;16815;51.100;6.516;2022-12-07T00:08:30;17.77;;;13.80;;
29958;SDS011;16815;51.100;6.516;2022-12-07T00:11:00;18.07;;;13.10;;
29958;SDS011;16815;51.100;6.516;2022-12-07T00:13:26;16.33;;;12.60;;
29958;SDS011;16815;51.100;6.516;2022-12-07T00:15:52;16.93;;;13.10;;
29958;SDS011;16815;51.100;6.516;2022-12-07T00:18:18;16.37;;;13.30;;
29958;SDS011;16815;51.100;6.516;2022-12-07T00:20:44;16.57;;;13.50;;
29958;SDS011;16815;51.100;6.516;2022-12-07T00:23:10;15.43;;;12.97;;
29958;SDS011;16815;51.100;6.516;2022-12-07T00:25:36;16.40;;;13.03;;
29958;SDS011;16815;51.100;6.516;2022-12-07T00:28:02;18.40;;;13.47;;
29958;SDS011;16815;51.100;6.516;2022-12-07T00:30:28;17.33;;;14.07;;
29958;SDS011;16815;51.100;6.516;2022-12-07T00:32:54;18.80;;;14.53;;
29958;SDS011;16815;51.100;6.516;2022-12-07T00:35:20;18.23;;;15.13;;
29958;SDS011;16815;51.100;6.516;2022-12-07T00:37:45;21.30;;;15.47;;
29958;SDS011;16815;51.100;6.516;2022-12-07T00:40:11;19.10;;;16.33;;
29958;SDS011;16815;51.100;6.516;2022-12-07T00:42:37;20.13;;;16.20;;
29958;SDS011;16815;51.100;6.516;2022-12-07T00:45:03;22.13;;;16.83;;
29958;SDS011;16815;51.100;6.516;2022-12-07T00:47:29;20.60;;;17.07;;
29958;SDS011;16815;51.100;6.516;2022-12-07T00:49:55;23.73;;;17.90;;
29958;SDS011;16815;51.100;6.516;2022-12-07T00:52:21;20.57;;;17.83;;
29958;SDS011;16815;51.100;6.516;2022-12-07T00:54:47;20.23;;;17.07;;
29958;SDS011;16815;51.100;6.516;2022-12-07T00:57:13;22.70;;;18.37;;
29958;SDS011;16815;51.100;6.516;2022-12-07T00:59:39;22.90;;;18.53;;
29958;SDS011;16815;51.100;6.516;2022-12-07T01:02:05;22.27;;;18.37;;
29958;SDS011;16815;51.100;6.516;2022-12-07T01:04:33;22.70;;;17.27;;
29958;SDS011;16815;51.100;6.516;2022-12-07T01:06:59;21.73;;;18.07;;
29958;SDS011;16815;51.100;6.516;2022-12-07T01:09:25;24.97;;;18.63;;
29958;SDS011;16815;51.100;6.516;2022-12-07T01:11:51;22.27;;;18.33;;
29958;SDS011;16815;51.100;6.516;2022-12-07T01:14:16;21.77;;;17.40;;
29958;SDS011;16815;51.100;6.516;2022-12-07T01:16:42;21.40;;;16.97;;
29958;SDS011;16815;51.100;6.516;2022-12-07T01:19:08;20.97;;;17.30;;
29958;SDS011;16815;51.100;6.516;2022-12-07T01:21:34;24.10;;;18.00;;
29958;SDS011;16815;51.100;6.516;2022-12-07T01:24:03;21.13;;;18.23;;
29958;SDS011;16815;51.100;6.516;2022-12-07T01:26:29;21.23;;;16.93;;
29958;SDS011;16815;51.100;6.516;2022-12-07T01:28:55;21.43;;;16.53;;
29958;SDS011;16815;51.100;6.516;2022-12-07T01:31:24;24.17;;;17.53;;
29958;SDS011;16815;51.100;6.516;2022-12-07T01:33:51;22.00;;;17.53;;
29958;SDS011;16815;51.100;6.516;2022-12-07T01:38:47;20.10;;;17.03;;
29958;SDS011;16815;51.100;6.516;2022-12-07T01:41:14;21.50;;;17.40;;
29958;SDS011;16815;51.100;6.516;2022-12-07T01:46:25;21.93;;;17.13;;
29958;SDS011;16815;51.100;6.516;2022-12-07T01:48:51;23.43;;;17.97;;
29958;SDS011;16815;51.100;6.516;2022-12-07T01:51:17;21.30;;;17.63;;
29958;SDS011;16815;51.100;6.516;2022-12-07T01:53:43;24.33;;;19.00;;
29958;SDS011;16815;51.100;6.516;2022-12-07T01:56:12;25.20;;;19.30;;
29958;SDS011;16815;51.100;6.516;2022-12-07T01:58:39;22.97;;;18.90;;
29958;SDS011;16815;51.100;6.516;2022-12-07T02:01:05;22.43;;;19.40;;
29958;SDS011;16815;51.100;6.516;2022-12-07T02:03:32;26.70;;;20.47;;
29958;SDS011;16815;51.100;6.516;2022-12-07T02:05:59;22.00;;;18.97;;
29958;SDS011;16815;51.100;6.516;2022-12-07T02:08:25;25.47;;;18.93;;
29958;SDS011;16815;51.100;6.516;2022-12-07T02:10:52;30.60;;;20.10;;
29958;SDS011;16815;51.100;6.516;2022-12-07T02:13:19;24.37;;;19.20;;
29958;SDS011;16815;51.100;6.516;2022-12-07T02:18:35;24.07;;;19.90;;
29958;SDS011;16815;51.100;6.516;2022-12-07T02:21:23;27.20;;;20.17;;
29958;SDS011;16815;51.100;6.516;2022-12-07T02:26:28;25.40;;;20.77;;
29958;SDS011;16815;51.100;6.516;2022-12-07T02:31:29;27.30;;;22.20;;
29958;SDS011;16815;51.100;6.516;2022-12-07T02:34:08;26.67;;;21.60;;
29958;SDS011;16815;51.100;6.516;2022-12-07T02:36:46;30.33;;;24.40;;
29958;SDS011;16815;51.100;6.516;2022-12-07T02:39:17;30.07;;;23.47;;
29958;SDS011;16815;51.100;6.516;2022-12-07T02:41:44;32.57;;;24.60;;
29958;SDS011;16815;51.100;6.516;2022-12-07T02:44:13;31.47;;;24.53;;
29958;SDS011;16815;51.100;6.516;2022-12-07T02:46:44;29.77;;;24.63;;
29958;SDS011;16815;51.100;6.516;2022-12-07T02:49:10;33.70;;;25.80;;
29958;SDS011;16815;51.100;6.516;2022-12-07T02:51:41;34.60;;;25.67;;
29958;SDS011;16815;51.100;6.516;2022-12-07T02:54:14;36.73;;;26.73;;
29958;SDS011;16815;51.100;6.516;2022-12-07T03:02:02;36.33;;;26.53;;
29958;SDS011;16815;51.100;6.516;2022-12-07T03:07:37;33.13;;;26.50;;
29958;SDS011;16815;51.100;6.516;2022-12-07T03:12:54;31.63;;;25.83;;
29958;SDS011;16815;51.100;6.516;2022-12-07T03:18:16;32.13;;;25.43;;
29958;SDS011;16815;51.100;6.516;2022-12-07T03:20:43;34.70;;;27.17;;
29958;SDS011;16815;51.100;6.516;2022-12-07T03:23:10;35.27;;;26.73;;
29958;SDS011;16815;51.100;6.516;2022-12-07T03:25:40;36.00;;;26.43;;
29958;SDS011;16815;51.100;6.516;2022-12-07T03:28:06;34.40;;;26.07;;
29958;SDS011;16815;51.100;6.516;2022-12-07T03:30:39;34.87;;;27.80;;
29958;SDS011;16815;51.100;6.516;2022-12-07T03:33:21;35.00;;;25.33;;
29958;SDS011;16815;51.100;6.516;2022-12-07T03:35:52;34.97;;;26.37;;
29958;SDS011;16815;51.100;6.516;2022-12-07T03:38:22;36.07;;;27.97;;
29958;SDS011;16815;51.100;6.516;2022-12-07T03:43:21;32.10;;;25.90;;
29958;SDS011;16815;51.100;6.516;2022-12-07T03:48:33;34.63;;;25.53;;
29958;SDS011;16815;51.100;6.516;2022-12-07T03:51:01;33.87;;;24.63;;
29958;SDS011;16815;51.100;6.516;2022-12-07T03:53:39;36.33;;;25.87;;
29958;SDS011;16815;51.100;6.516;2022-12-07T03:56:07;30.33;;;24.13;;
29958;SDS011;16815;51.100;6.516;2022-12-07T03:58:34;30.30;;;23.83;;
29958;SDS011;16815;51.100;6.516;2022-12-07T04:01:00;30.83;;;25.10;;
29958;SDS011;16815;51.100;6.516;2022-12-07T04:03:26;29.87;;;25.00;;
29958;SDS011;16815;51.100;6.516;2022-12-07T04:05:52;29.13;;;25.13;;
29958;SDS011;16815;51.100;6.516;2022-12-07T04:08:18;31.70;;;25.03;;
29958;SDS011;16815;51.100;6.516;2022-12-07T04:10:44;30.50;;;25.13;;
29958;SDS011;16815;51.100;6.516;2022-12-07T04:13:10;33.57;;;25.23;;
29958;SDS011;16815;51.100;6.516;2022-12-07T04:15:36;30.30;;;25.00;;
29958;SDS011;16815;51.100;6.516;2022-12-07T04:18:02;28.93;;;22.90;;
29958;SDS011;16815;51.100;6.516;2022-12-07T04:20:28;30.27;;;24.37;;
29958;SDS011;16815;51.100;6.516;2022-12-07T04:22:54;28.63;;;21.80;;
29958;SDS011;16815;51.100;6.516;2022-12-07T04:25:20;27.30;;;23.80;;
29958;SDS011;16815;51.100;6.516;2022-12-07T04:27:46;28.20;;;22.17;;
29958;SDS011;16815;51.100;6.516;2022-12-07T04:30:11;28.57;;;22.03;;
29958;SDS011;16815;51.100;6.516;2022-12-07T04:32:37;33.27;;;23.63;;
29958;SDS011;16815;51.100;6.516;2022-12-07T04:35:04;28.53;;;22.63;;
29958;SDS011;16815;51.100;6.516;2022-12-07T04:37:30;28.47;;;22.77;;
29958;SDS011;16815;51.100;6.516;2022-12-07T04:39:56;25.97;;;22.87;;
29958;SDS011;16815;51.100;6.516;2022-12-07T04:42:22;28.77;;;22.27;;
29958;SDS011;16815;51.100;6.516;2022-12-07T04:44:47;26.20;;;21.10;;
29958;SDS011;16815;51.100;6.516;2022-12-07T04:47:13;25.37;;;21.03;;
29958;SDS011;16815;51.100;6.516;2022-12-07T04:49:39;27.23;;;22.03;;
29958;SDS011;16815;51.100;6.516;2022-12-07T04:52:05;29.27;;;22.23;;
29958;SDS011;16815;51.100;6.516;2022-12-07T04:54:31;26.53;;;21.77;;
29958;SDS011;16815;51.100;6.516;2022-12-07T04:56:57;25.40;;;20.23;;
29958;SDS011;16815;51.100;6.516;2022-12-07T04:59:23;24.70;;;20.47;;
29958;SDS011;16815;51.100;6.516;2022-12-07T05:01:49;23.77;;;20.30;;
29958;SDS011;16815;51.100;6.516;2022-12-07T05:04:15;26.93;;;20.20;;
29958;SDS011;16815;51.100;6.516;2022-12-07T05:06:42;27.40;;;21.00;;
29958;SDS011;16815;51.100;6.516;2022-12-07T05:09:08;27.30;;;20.20;;
29958;SDS011;16815;51.100;6.516;2022-12-07T05:11:34;25.10;;;21.23;;
29958;SDS011;16815;51.100;6.516;2022-12-07T05:14:05;28.77;;;20.50;;
29958;SDS011;16815;51.100;6.516;2022-12-07T05:16:31;26.27;;;21.03;;
29958;SDS011;16815;51.100;6.516;2022-12-07T05:18:58;24.73;;;19.90;;
29958;SDS011;16815;51.100;6.516;2022-12-07T05:21:24;26.43;;;20.03;;
29958;SDS011;16815;51.100;6.516;2022-12-07T05:23:50;34.60;;;20.97;;
29958;SDS011;16815;51.100;6.516;2022-12-07T05:26:16;31.30;;;20.27;;
29958;SDS011;16815;51.100;6.516;2022-12-07T05:28:42;25.97;;;20.27;;
29958;SDS011;16815;51.100;6.516;2022-12-07T05:31:08;26.03;;;18.47;;
29958;SDS011;16815;51.100;6.516;2022-12-07T05:33:34;24.13;;;17.70;;
29958;SDS011;16815;51.100;6.516;2022-12-07T05:36:00;21.97;;;17.10;;
29958;SDS011;16815;51.100;6.516;2022-12-07T05:38:30;23.20;;;17.13;;
29958;SDS011;16815;51.100;6.516;2022-12-07T05:40:59;25.80;;;17.37;;
29958;SDS011;16815;51.100;6.516;2022-12-07T05:43:26;19.83;;;16.23;;
29958;SDS011;16815;51.100;6.516;2022-12-07T05:45:52;20.57;;;17.43;;
29958;SDS011;16815;51.100;6.516;2022-12-07T05:48:18;22.23;;;17.23;;
29958;SDS011;16815;51.100;6.516;2022-12-07T05:50:44;29.27;;;18.67;;
29958;SDS011;16815;51.100;6.516;2022-12-07T05:53:12;25.03;;;17.97;;
29958;SDS011;16815;51.100;6.516;2022-12-07T05:55:38;24.13;;;18.47;;
29958;SDS011;16815;51.100;6.516;2022-12-07T05:58:04;21.90;;;18.17;;
29958;SDS011;16815;51.100;6.516;2022-12-07T06:00:49;22.37;;;18.23;;
29958;SDS011;16815;51.100;6.516;2022-12-07T06:03:15;22.87;;;18.47;;
29958;SDS011;16815;51.100;6.516;2022-12-07T06:05:41;20.80;;;17.63;;
29958;SDS011;16815;51.100;6.516;2022-12-07T06:08:07;22.37;;;17.80;;
29958;SDS011;16815;51.100;6.516;2022-12-07T06:10:33;19.37;;;15.90;;
29958;SDS011;16815;51.100;6.516;2022-12-07T06:12:59;22.13;;;17.07;;
29958;SDS011;16815;51.100;6.516;2022-12-07T06:15:25;20.10;;;16.33;;
29958;SDS011;16815;51.100;6.516;2022-12-07T06:17:51;19.23;;;16.10;;
29958;SDS011;16815;51.100;6.516;2022-12-07T06:20:17;18.87;;;16.13;;
29958;SDS011;16815;51.100;6.516;2022-12-07T06:22:43;19.93;;;16.93;;
29958;SDS011;16815;51.100;6.516;2022-12-07T06:25:09;18.80;;;15.97;;
29958;SDS011;16815;51.100;6.516;2022-12-07T06:27:35;19.97;;;16.53;;
29958;SDS011;16815;51.100;6.516;2022-12-07T06:30:01;18.97;;;15.40;;
29958;SDS011;16815;51.100;6.516;2022-12-07T06:32:31;18.53;;;15.20;;
29958;SDS011;16815;51.100;6.516;2022-12-07T06:34:57;20.13;;;15.47;;
29958;SDS011;16815;51.100;6.516;2022-12-07T06:37:23;19.57;;;15.37;;
29958;SDS011;16815;51.100;6.516;2022-12-07T06:39:49;21.80;;;15.43;;
29958;SDS011;16815;51.100;6.516;2022-12-07T06:42:15;16.53;;;14.17;;
29958;SDS011;16815;51.100;6.516;2022-12-07T06:44:41;15.83;;;14.20;;
29958;SDS011;16815;51.100;6.516;2022-12-07T06:47:07;15.60;;;13.50;;
29958;SDS011;16815;51.100;6.516;2022-12-07T06:49:34;18.37;;;15.17;;
29958;SDS011;16815;51.100;6.516;2022-12-07T06:52:00;16.00;;;14.30;;
29958;SDS011;16815;51.100;6.516;2022-12-07T06:54:26;15.27;;;13.43;;
29958;SDS011;16815;51.100;6.516;2022-12-07T06:56:52;15.03;;;13.20;;
29958;SDS011;16815;51.100;6.516;2022-12-07T06:59:18;15.80;;;11.93;;
29958;SDS011;16815;51.100;6.516;2022-12-07T07:01:44;15.47;;;11.90;;
29958;SDS011;16815;51.100;6.516;2022-12-07T07:04:10;15.37;;;12.27;;
29958;SDS011;16815;51.100;6.516;2022-12-07T07:06:36;15.10;;;11.73;;
29958;SDS011;16815;51.100;6.516;2022-12-07T07:09:01;12.33;;;10.87;;
29958;SDS011;16815;51.100;6.516;2022-12-07T07:11:28;13.17;;;11.13;;
29958;SDS011;16815;51.100;6.516;2022-12-07T07:13:54;16.53;;;11.53;;
29958;SDS011;16815;51.100;6.516;2022-12-07T07:16:22;14.13;;;12.13;;
29958;SDS011;16815;51.100;6.516;2022-12-07T07:18:48;12.10;;;10.80;;
29958;SDS011;16815;51.100;6.516;2022-12-07T07:21:14;14.33;;;11.97;;
29958;SDS011;16815;51.100;6.516;2022-12-07T07:23:40;14.13;;;11.07;;
29958;SDS011;16815;51.100;6.516;2022-12-07T07:26:05;15.40;;;12.30;;
29958;SDS011;16815;51.100;6.516;2022-12-07T07:28:31;13.60;;;11.93;;
29958;SDS011;16815;51.100;6.516;2022-12-07T07:30:57;14.50;;;12.03;;
29958;SDS011;16815;51.100;6.516;2022-12-07T07:33:23;15.60;;;12.20;;
29958;SDS011;16815;51.100;6.516;2022-12-07T07:35:49;15.10;;;12.53;;
29958;SDS011;16815;51.100;6.516;2022-12-07T07:38:15;18.13;;;14.17;;
29958;SDS011;16815;51.100;6.516;2022-12-07T07:40:41;20.47;;;13.93;;
29958;SDS011;16815;51.100;6.516;2022-12-07T07:43:07;16.90;;;13.77;;
29958;SDS011;16815;51.100;6.516;2022-12-07T07:45:33;18.10;;;14.43;;
29958;SDS011;16815;51.100;6.516;2022-12-07T07:47:59;16.77;;;14.07;;
29958;SDS011;16815;51.100;6.516;2022-12-07T07:50:25;19.43;;;15.07;;
29958;SDS011;16815;51.100;6.516;2022-12-07T07:52:51;21.33;;;14.07;;
29958;SDS011;16815;51.100;6.516;2022-12-07T07:55:17;15.17;;;13.57;;
29958;SDS011;16815;51.100;6.516;2022-12-07T07:57:43;16.27;;;13.80;;
29958;SDS011;16815;51.100;6.516;2022-12-07T08:00:13;16.50;;;14.07;;
29958;SDS011;16815;51.100;6.516;2022-12-07T08:02:39;17.97;;;14.23;;
29958;SDS011;16815;51.100;6.516;2022-12-07T08:05:06;17.40;;;13.93;;
29958;SDS011;16815;51.100;6.516;2022-12-07T08:07:32;16.23;;;13.97;;
29958;SDS011;16815;51.100;6.516;2022-12-07T08:09:58;17.37;;;15.47;;
29958;SDS011;16815;51.100;6.516;2022-12-07T08:12:24;21.33;;;14.97;;
29958;SDS011;16815;51.100;6.516;2022-12-07T08:14:50;19.57;;;15.53;;
29958;SDS011;16815;51.100;6.516;2022-12-07T08:17:16;18.80;;;15.37;;
29958;SDS011;16815;51.100;6.516;2022-12-07T08:19:42;19.27;;;15.60;;
29958;SDS011;16815;51.100;6.516;2022-12-07T08:22:08;20.23;;;14.77;;
29958;SDS011;16815;51.100;6.516;2022-12-07T08:24:34;18.53;;;15.10;;
29958;SDS011;16815;51.100;6.516;2022-12-07T08:27:01;20.00;;;15.10;;
29958;SDS011;16815;51.100;6.516;2022-12-07T08:29:27;16.40;;;14.70;;
29958;SDS011;16815;51.100;6.516;2022-12-07T08:31:53;15.27;;;13.60;;
29958;SDS011;16815;51.100;6.516;2022-12-07T08:34:19;22.43;;;15.70;;
29958;SDS011;16815;51.100;6.516;2022-12-07T08:36:45;18.17;;;14.97;;
29958;SDS011;16815;51.100;6.516;2022-12-07T08:39:11;17.70;;;14.47;;
29958;SDS011;16815;51.100;6.516;2022-12-07T08:41:36;15.77;;;13.67;;
29958;SDS011;16815;51.100;6.516;2022-12-07T08:44:03;21.27;;;14.53;;
29958;SDS011;16815;51.100;6.516;2022-12-07T08:46:36;17.13;;;13.70;;
29958;SDS011;16815;51.100;6.516;2022-12-07T08:49:11;15.93;;;13.43;;
29958;SDS011;16815;51.100;6.516;2022-12-07T08:51:38;15.70;;;13.47;;
29958;SDS011;16815;51.100;6.516;2022-12-07T08:54:04;17.83;;;13.43;;
29958;SDS011;16815;51.100;6.516;2022-12-07T08:56:32;17.23;;;11.90;;
29958;SDS011;16815;51.100;6.516;2022-12-07T08:58:58;15.00;;;10.93;;
29958;SDS011;16815;51.100;6.516;2022-12-07T09:01:24;15.33;;;12.03;;
29958;SDS011;16815;51.100;6.516;2022-12-07T09:03:51;14.17;;;11.73;;
29958;SDS011;16815;51.100;6.516;2022-12-07T09:06:17;17.80;;;12.40;;
29958;SDS011;16815;51.100;6.516;2022-12-07T09:08:45;16.67;;;12.23;;
29958;SDS011;16815;51.100;6.516;2022-12-07T09:11:12;17.20;;;12.47;;
29958;SDS011;16815;51.100;6.516;2022-12-07T09:13:38;15.50;;;11.57;;
29958;SDS011;16815;51.100;6.516;2022-12-07T09:16:04;17.53;;;12.30;;
29958;SDS011;16815;51.100;6.516;2022-12-07T09:18:30;19.03;;;13.33;;
29958;SDS011;16815;51.100;6.516;2022-12-07T09:20:56;16.37;;;11.87;;
29958;SDS011;16815;51.100;6.516;2022-12-07T09:23:22;17.43;;;11.83;;
29958;SDS011;16815;51.100;6.516;2022-12-07T09:25:48;13.93;;;11.43;;
29958;SDS011;16815;51.100;6.516;2022-12-07T09:28:14;14.33;;;11.60;;
29958;SDS011;16815;51.100;6.516;2022-12-07T09:30:45;15.53;;;11.67;;
29958;SDS011;16815;51.100;6.516;2022-12-07T09:33:11;19.23;;;13.07;;
29958;SDS011;16815;51.100;6.516;2022-12-07T09:35:36;16.67;;;12.50;;
29958;SDS011;16815;51.100;6.516;2022-12-07T09:38:02;15.50;;;11.80;;
29958;SDS011;16815;51.100;6.516;2022-12-07T09:40:28;15.07;;;11.50;;
29958;SDS011;16815;51.100;6.516;2022-12-07T09:42:54;17.13;;;12.77;;
29958;SDS011;16815;51.100;6.516;2022-12-07T09:45:22;16.03;;;11.03;;
29958;SDS011;16815;51.100;6.516;2022-12-07T09:47:49;16.00;;;11.90;;
29958;SDS011;16815;51.100;6.516;2022-12-07T09:50:16;12.77;;;11.40;;
29958;SDS011;16815;51.100;6.516;2022-12-07T09:52:43;16.23;;;10.77;;
29958;SDS011;16815;51.100;6.516;2022-12-07T09:55:14;13.27;;;10.97;;
29958;SDS011;16815;51.100;6.516;2022-12-07T09:57:41;16.20;;;12.43;;
29958;SDS011;16815;51.100;6.516;2022-12-07T10:00:18;15.17;;;11.27;;
29958;SDS011;16815;51.100;6.516;2022-12-07T10:02:47;12.53;;;11.10;;
29958;SDS011;16815;51.100;6.516;2022-12-07T10:05:16;13.67;;;10.80;;
29958;SDS011;16815;51.100;6.516;2022-12-07T10:07:44;15.27;;;10.70;;
29958;SDS011;16815;51.100;6.516;2022-12-07T10:10:14;14.97;;;10.70;;
29958;SDS011;16815;51.100;6.516;2022-12-07T10:12:53;14.77;;;11.63;;
29958;SDS011;16815;51.100;6.516;2022-12-07T10:15:19;16.20;;;10.70;;
29958;SDS011;16815;51.100;6.516;2022-12-07T10:17:49;15.27;;;11.60;;
29958;SDS011;16815;51.100;6.516;2022-12-07T10:20:16;16.27;;;11.60;;
29958;SDS011;16815;51.100;6.516;2022-12-07T10:25:21;13.03;;;10.93;;
29958;SDS011;16815;51.100;6.516;2022-12-07T10:27:57;18.53;;;12.27;;
29958;SDS011;16815;51.100;6.516;2022-12-07T10:30:23;17.77;;;11.50;;
29958;SDS011;16815;51.100;6.516;2022-12-07T10:32:49;14.57;;;11.47;;
29958;SDS011;16815;51.100;6.516;2022-12-07T10:35:18;17.30;;;11.50;;
29958;SDS011;16815;51.100;6.516;2022-12-07T10:37:45;17.50;;;11.33;;
29958;SDS011;16815;51.100;6.516;2022-12-07T10:43:35;14.80;;;10.97;;
29958;SDS011;16815;51.100;6.516;2022-12-07T10:45:57;15.33;;;11.70;;
29958;SDS011;16815;51.100;6.516;2022-12-07T10:48:31;15.30;;;10.47;;
29958;SDS011;16815;51.100;6.516;2022-12-07T10:51:02;16.37;;;10.50;;
29958;SDS011;16815;51.100;6.516;2022-12-07T11:12:01;14.77;;;12.10;;
29958;SDS011;16815;51.100;6.516;2022-12-07T11:16:59;16.07;;;11.93;;
29958;SDS011;16815;51.100;6.516;2022-12-07T11:21:56;17.43;;;12.87;;
29958;SDS011;16815;51.100;6.516;2022-12-07T11:24:27;16.97;;;12.53;;
29958;SDS011;16815;51.100;6.516;2022-12-07T11:27:00;17.30;;;12.90;;
29958;SDS011;16815;51.100;6.516;2022-12-07T11:32:28;16.27;;;12.17;;
29958;SDS011;16815;51.100;6.516;2022-12-07T11:38:07;17.30;;;10.60;;
29958;SDS011;16815;51.100;6.516;2022-12-07T11:40:34;16.50;;;10.10;;
29958;SDS011;16815;51.100;6.516;2022-12-07T11:43:04;16.10;;;10.00;;
29958;SDS011;16815;51.100;6.516;2022-12-07T11:45:32;13.90;;;9.43;;
29958;SDS011;16815;51.100;6.516;2022-12-07T11:48:00;12.87;;;9.53;;
29958;SDS011;16815;51.100;6.516;2022-12-07T11:50:34;12.13;;;9.13;;
29958;SDS011;16815;51.100;6.516;2022-12-07T11:53:09;15.67;;;10.87;;
29958;SDS011;16815;51.100;6.516;2022-12-07T12:00:48;15.20;;;11.43;;
29958;SDS011;16815;51.100;6.516;2022-12-07T12:03:20;17.53;;;11.43;;
29958;SDS011;16815;51.100;6.516;2022-12-07T12:05:49;19.20;;;11.77;;
29958;SDS011;16815;51.100;6.516;2022-12-07T12:08:16;18.57;;;11.47;;
29958;SDS011;16815;51.100;6.516;2022-12-07T12:13:21;16.43;;;11.23;;
29958;SDS011;16815;51.100;6.516;2022-12-07T12:15:57;18.30;;;11.27;;
29958;SDS011;16815;51.100;6.516;2022-12-07T12:18:32;18.93;;;11.27;;
29958;SDS011;16815;51.100;6.516;2022-12-07T12:21:04;14.03;;;10.50;;
29958;SDS011;16815;51.100;6.516;2022-12-07T12:26:05;15.90;;;9.60;;
29958;SDS011;16815;51.100;6.516;2022-12-07T12:28:36;15.63;;;9.30;;
29958;SDS011;16815;51.100;6.516;2022-12-07T12:31:05;13.43;;;9.43;;
29958;SDS011;16815;51.100;6.516;2022-12-07T12:33:32;15.87;;;9.43;;
29958;SDS011;16815;51.100;6.516;2022-12-07T12:36:16;14.10;;;9.13;;
29958;SDS011;16815;51.100;6.516;2022-12-07T12:46:46;12.13;;;8.07;;
29958;SDS011;16815;51.100;6.516;2022-12-07T12:51:41;11.07;;;7.77;;
29958;SDS011;16815;51.100;6.516;2022-12-07T12:54:18;11.27;;;8.10;;
29958;SDS011;16815;51.100;6.516;2022-12-07T12:56:47;14.27;;;7.80;;
29958;SDS011;16815;51.100;6.516;2022-12-07T13:04:49;11.60;;;8.03;;
29958;SDS011;16815;51.100;6.516;2022-12-07T13:10:01;16.57;;;8.47;;
29958;SDS011;16815;51.100;6.516;2022-12-07T13:12:27;12.50;;;7.53;;
29958;SDS011;16815;51.100;6.516;2022-12-07T13:14:54;15.57;;;7.77;;
29958;SDS011;16815;51.100;6.516;2022-12-07T13:20:02;12.43;;;7.87;;
29958;SDS011;16815;51.100;6.516;2022-12-07T13:25:18;11.97;;;7.97;;
29958;SDS011;16815;51.100;6.516;2022-12-07T13:27:48;10.83;;;7.17;;
29958;SDS011;16815;51.100;6.516;2022-12-07T13:30:19;12.77;;;7.60;;
29958;SDS011;16815;51.100;6.516;2022-12-07T13:32:55;13.13;;;8.07;;
29958;SDS011;16815;51.100;6.516;2022-12-07T13:37:56;11.43;;;6.90;;
29958;SDS011;16815;51.100;6.516;2022-12-07T13:40:22;9.13;;;6.50;;
29958;SDS011;16815;51.100;6.516;2022-12-07T13:42:56;11.77;;;6.30;;
29958;SDS011;16815;51.100;6.516;2022-12-07T13:45:27;10.40;;;6.00;;
29958;SDS011;16815;51.100;6.516;2022-12-07T13:48:22;9.50;;;5.33;;
29958;SDS011;16815;51.100;6.516;2022-12-07T13:50:53;11.20;;;5.80;;
29958;SDS011;16815;51.100;6.516;2022-12-07T13:53:19;10.20;;;5.37;;
29958;SDS011;16815;51.100;6.516;2022-12-07T13:55:45;11.70;;;6.07;;
29958;SDS011;16815;51.100;6.516;2022-12-07T13:58:12;10.10;;;5.60;;
29958;SDS011;16815;51.100;6.516;2022-12-07T14:00:39;7.40;;;5.23;;
29958;SDS011;16815;51.100;6.516;2022-12-07T14:05:37;9.50;;;5.83;;
29958;SDS011;16815;51.100;6.516;2022-12-07T14:08:04;7.57;;;5.33;;
29958;SDS011;16815;51.100;6.516;2022-12-07T14:10:32;8.70;;;5.60;;
29958;SDS011;16815;51.100;6.516;2022-12-07T14:12:59;8.10;;;5.43;;
29958;SDS011;16815;51.100;6.516;2022-12-07T14:15:29;8.53;;;5.00;;
29958;SDS011;16815;51.100;6.516;2022-12-07T14:17:56;9.17;;;5.20;;
29958;SDS011;16815;51.100;6.516;2022-12-07T14:20:36;12.03;;;5.90;;
29958;SDS011;16815;51.100;6.516;2022-12-07T14:23:02;7.93;;;5.20;;
29958;SDS011;16815;51.100;6.516;2022-12-07T14:25:34;6.73;;;5.07;;
29958;SDS011;16815;51.100;6.516;2022-12-07T14:28:10;7.93;;;5.20;;
29958;SDS011;16815;51.100;6.516;2022-12-07T14:30:49;8.10;;;6.23;;
29958;SDS011;16815;51.100;6.516;2022-12-07T14:33:15;9.47;;;6.53;;
29958;SDS011;16815;51.100;6.516;2022-12-07T14:35:42;10.67;;;4.07;;
29958;SDS011;16815;51.100;6.516;2022-12-07T14:38:08;5.47;;;3.00;;
29958;SDS011;16815;51.100;6.516;2022-12-07T14:40:34;7.30;;;3.30;;
29958;SDS011;16815;51.100;6.516;2022-12-07T14:43:01;7.13;;;3.53;;
29958;SDS011;16815;51.100;6.516;2022-12-07T14:45:27;4.80;;;3.07;;
29958;SDS011;16815;51.100;6.516;2022-12-07T14:47:53;6.03;;;2.83;;
29958;SDS011;16815;51.100;6.516;2022-12-07T14:50:19;5.80;;;3.13;;
29958;SDS011;16815;51.100;6.516;2022-12-07T14:52:47;5.57;;;2.83;;
29958;SDS011;16815;51.100;6.516;2022-12-07T14:55:16;6.37;;;3.50;;
29958;SDS011;16815;51.100;6.516;2022-12-07T14:57:43;9.13;;;4.13;;
29958;SDS011;16815;51.100;6.516;2022-12-07T15:00:13;7.63;;;3.53;;
29958;SDS011;16815;51.100;6.516;2022-12-07T15:02:39;6.27;;;3.83;;
29958;SDS011;16815;51.100;6.516;2022-12-07T15:05:05;10.60;;;4.40;;
29958;SDS011;16815;51.100;6.516;2022-12-07T15:07:31;7.47;;;4.70;;
29958;SDS011;16815;51.100;6.516;2022-12-07T15:09:57;11.93;;;4.90;;
29958;SDS011;16815;51.100;6.516;2022-12-07T15:12:23;8.73;;;4.90;;
29958;SDS011;16815;51.100;6.516;2022-12-07T15:14:49;10.13;;;5.50;;
29958;SDS011;16815;51.100;6.516;2022-12-07T15:17:15;10.27;;;5.83;;
29958;SDS011;16815;51.100;6.516;2022-12-07T15:19:41;8.70;;;5.60;;
29958;SDS011;16815;51.100;6.516;2022-12-07T15:22:08;8.83;;;6.00;;
29958;SDS011;16815;51.100;6.516;2022-12-07T15:24:35;10.37;;;6.57;;
29958;SDS011;16815;51.100;6.516;2022-12-07T15:27:01;12.47;;;6.17;;
29958;SDS011;16815;51.100;6.516;2022-12-07T15:29:27;10.20;;;6.60;;
29958;SDS011;16815;51.100;6.516;2022-12-07T15:31:53;12.77;;;6.77;;
29958;SDS011;16815;51.100;6.516;2022-12-07T15:34:19;12.37;;;7.27;;
29958;SDS011;16815;51.100;6.516;2022-12-07T15:36:45;12.60;;;7.10;;
29958;SDS011;16815;51.100;6.516;2022-12-07T15:39:11;10.23;;;6.40;;
29958;SDS011;16815;51.100;6.516;2022-12-07T15:41:37;9.87;;;6.80;;
29958;SDS011;16815;51.100;6.516;2022-12-07T15:44:04;9.27;;;6.67;;
29958;SDS011;16815;51.100;6.516;2022-12-07T15:46:48;14.17;;;7.03;;
29958;SDS011;16815;51.100;6.516;2022-12-07T15:49:16;11.50;;;7.60;;
29958;SDS011;16815;51.100;6.516;2022-12-07T15:51:42;10.93;;;7.90;;
29958;SDS011;16815;51.100;6.516;2022-12-07T15:54:16;11.00;;;7.67;;
29958;SDS011;16815;51.100;6.516;2022-12-07T15:56:43;12.60;;;8.47;;
29958;SDS011;16815;51.100;6.516;2022-12-07T15:59:09;11.87;;;7.93;;
29958;SDS011;16815;51.100;6.516;2022-12-07T16:01:35;12.07;;;8.57;;
29958;SDS011;16815;51.100;6.516;2022-12-07T16:04:01;11.87;;;7.67;;
29958;SDS011;16815;51.100;6.516;2022-12-07T16:06:27;11.77;;;7.53;;
29958;SDS011;16815;51.100;6.516;2022-12-07T16:08:53;8.70;;;7.33;;
29958;SDS011;16815;51.100;6.516;2022-12-07T16:11:19;10.63;;;8.70;;
29958;SDS011;16815;51.100;6.516;2022-12-07T16:13:45;13.60;;;8.60;;
29958;SDS011;16815;51.100;6.516;2022-12-07T16:16:12;14.83;;;8.23;;